Vremea acum in Lehliu Gară - Romania

Vrei sa afli care e starea vremii acum in Calarasi - Romania? Dorim sa iti furnizam starea vremii pentru Calarasi - Romania. Starea vremii Calarasi - Romania pentru astazi.

Vremea acum in Lehliu Gară

Temperatura: 9.8 °C

Este: Senin
Se simte ca: 9.5 °C
Innorat: 8 %
Precipitatii: 0 %
Presiune atmosferica: 1017 hPa
Umiditate: 57%
Vizibilitate: 10 km
Vantul bate din S cu 5 km/h

Evolutia vremii in Lehliu Gară pe ore

Ora: 04:00
Senin
Temperatura: 9.8°C
Sansa de precipitatii: 0%
Ora Descriere Temp Se simte Precipitatii Umiditate Vant
00:00Senin11.3°10.2°0%55%SSE 10.1 KM/H
01:00Senin10.9°10.1°0%55%S 8.3 KM/H
02:00Senin10.4°9.6°0%56%SSE 7.6 KM/H
03:00Senin10.1°9.5°0%56%SSE 6.5 KM/H
04:00Senin9.8°9.5°0%57%S 5 KM/H
05:00Senin9.5°9.6°0%57%S 4 KM/H
06:00Senin9.3°9.3°0%57%SSW 2.5 KM/H
07:00Senin10.6°10.6°0%59%SSE 2.9 KM/H
08:00Senin12.6°12.6°0%51%SE 2.2 KM/H
09:00Senin14.8°15.7°0%47%ESE 3.2 KM/H
10:00Senin16.6°16.6°0%43%SE 5.8 KM/H
11:00Senin18.1°18.1°0%41%SE 7.6 KM/H
12:00Senin19.1°19.2°0%40%SE 8.3 KM/H
13:00Senin20°20°0%39%SE 8.3 KM/H
14:00Senin20.8°20.8°0%38%SE 8.3 KM/H
15:00Senin21.2°21.2°0%38%SSE 8.3 KM/H
16:00Senin21.4°21.4°0%38%SSE 7.9 KM/H
17:00Senin21.5°21.5°0%39%SSE 7.9 KM/H
18:00Senin21.2°21.2°0%41%S 9 KM/H
19:00Senin19.7°19.7°0%52%S 11.5 KM/H
20:00Senin16.8°16.8°0%61%S 13.7 KM/H
21:00Senin14.9°14°0%66%SSE 14.4 KM/H
22:00Senin13.6°12.3°0%69%SSE 15.5 KM/H
23:00Senin12.6°11°0%73%SSE 16.2 KM/H




tutorials